Uliastai, China
Current Conditions -  °F | °C
As of 12:30 PM on Thursday 23 Oct 2014 (Local Time) from ZBAA Reporting Station
Haze Haze  
Wind Chill: 61°   Ceiling: Unl
Heat Index: 61°   Visibility: 3mi
Dew Point: 45°   Wind: 4mph
Humidity: 55%   Direction: 20°NNE
Pressure: 29.94"   Gusts: NA
Location:  45.52°N, 116.97°E
Report Text: ZBAA 230430Z 02002MPS 290V080 5000 HZ NSC 16/07 Q1014 NOSIG
Loading
Personal Weather Stations






























Interactive Weather Map
Tropical Storm Tracking
New forecast layout! Learn more

10-Day Weather Forecast

Advertisements
Track Severe Weather on mobile